Time;durP1;ratioP1;P1;durP2;ratioP2;P2;SDS_P1;SDS_P2;PMS_P1;PMS_P2;Temp;Humidity;BMP_temperature;BMP_pressure;BME280_temperature;BME280_humidity;BME280_pressure;Samples;Min_cycle;Max_cycle;Signal;HPM_P1;HPM_P2
2022/11/15 00:00:42;;;;;;;26.05;18.85;;;8.20;99.90;;;;;;5095401;28;20115;-59
2022/11/15 00:03:07;;;;;;;25.45;18.23;;;8.20;99.90;;;;;;5093336;28;20120;-59
2022/11/15 00:05:35;;;;;;;26.70;18.90;;;8.20;99.90;;;;;;5093167;28;20043;-59
2022/11/15 00:08:01;;;;;;;25.13;18.43;;;8.20;99.90;;;;;;5093386;28;20127;-59
2022/11/15 00:10:27;;;;;;;26.58;19.02;;;8.20;99.90;;;;;;5094980;28;20114;-59
2022/11/15 00:12:52;;;;;;;25.08;18.42;;;8.20;99.90;;;;;;5095248;28;20050;-59
2022/11/15 00:15:18;;;;;;;26.38;18.75;;;8.10;99.90;;;;;;5095172;28;20497;-59
2022/11/15 00:17:44;;;;;;;24.40;18.40;;;8.10;99.90;;;;;;5095242;28;20036;-59
2022/11/15 00:20:11;;;;;;;25.85;18.98;;;8.00;99.90;;;;;;5095399;28;20500;-59
2022/11/15 00:22:37;;;;;;;26.45;18.25;;;8.00;99.90;;;;;;5094829;28;20470;-59
2022/11/15 00:25:03;;;;;;;25.20;17.75;;;7.90;99.90;;;;;;5094890;28;20047;-59
2022/11/15 00:27:28;;;;;;;26.10;18.80;;;7.90;99.90;;;;;;5094566;28;20041;-58
2022/11/15 00:29:54;;;;;;;26.38;17.60;;;7.80;99.90;;;;;;5095079;28;20036;-59
2022/11/15 00:32:20;;;;;;;29.60;18.98;;;7.80;99.90;;;;;;5093386;28;20035;-59
2022/11/15 00:34:45;;;;;;;27.92;19.02;;;7.80;99.90;;;;;;5074348;28;20393;-59
2022/11/15 00:37:11;;;;;;;26.38;18.85;;;7.80;99.90;;;;;;5093437;28;20154;-59
2022/11/15 00:39:36;;;;;;;24.02;17.92;;;7.70;99.90;;;;;;5093946;28;20032;-59
2022/11/15 00:42:02;;;;;;;26.83;19.45;;;7.70;99.90;;;;;;5100666;28;20040;-59
2022/11/15 00:44:28;;;;;;;25.95;18.05;;;7.80;99.90;;;;;;5101017;28;20038;-58
2022/11/15 00:46:53;;;;;;;25.40;18.92;;;7.80;99.90;;;;;;5095068;28;20040;-59
2022/11/15 00:49:19;;;;;;;30.83;20.20;;;7.80;99.90;;;;;;5094467;28;20035;-59
2022/11/15 00:51:45;;;;;;;23.90;18.60;;;7.80;99.90;;;;;;5094666;28;20475;-59
2022/11/15 00:54:10;;;;;;;24.55;18.20;;;7.80;99.90;;;;;;5094524;28;20040;-59
2022/11/15 00:56:36;;;;;;;26.98;19.15;;;7.80;99.90;;;;;;5094320;28;20044;-59
2022/11/15 00:59:01;;;;;;;25.73;18.75;;;7.90;99.90;;;;;;5094214;28;20032;-59
2022/11/15 01:01:27;;;;;;;25.83;19.13;;;7.90;99.90;;;;;;5096444;28;20063;-59
2022/11/15 01:03:53;;;;;;;26.17;18.75;;;7.90;99.90;;;;;;5092338;28;20040;-59
2022/11/15 01:06:18;;;;;;;25.50;18.25;;;7.90;99.90;;;;;;5098710;28;20505;-59
2022/11/15 01:08:44;;;;;;;25.17;18.27;;;7.90;99.90;;;;;;5111084;28;20078;-59
2022/11/15 01:11:12;;;;;;;24.80;19.00;;;7.90;99.90;;;;;;5114539;28;20516;-59
2022/11/15 01:13:38;;;;;;;26.25;18.73;;;7.90;99.90;;;;;;5114515;28;20050;-59
2022/11/15 01:16:13;;;;;;;23.45;17.73;;;7.90;99.90;;;;;;5114787;28;20078;-59
2022/11/15 01:18:39;;;;;;;24.63;18.17;;;7.90;99.90;;;;;;5114473;28;20393;-59
2022/11/15 01:21:15;;;;;;;23.77;18.08;;;7.90;99.90;;;;;;5114226;28;20038;-59
2022/11/15 01:23:41;;;;;;;21.02;17.02;;;7.90;99.90;;;;;;5114180;28;20366;-59
2022/11/15 01:26:10;;;;;;;23.85;16.75;;;7.90;99.90;;;;;;5114081;28;20042;-59
2022/11/15 01:28:37;;;;;;;22.70;17.38;;;7.80;99.90;;;;;;5114271;28;20047;-59
2022/11/15 01:31:06;;;;;;;23.48;17.60;;;7.80;99.90;;;;;;5114555;28;20043;-59
2022/11/15 01:33:35;;;;;;;23.42;17.08;;;7.80;99.90;;;;;;5100667;28;20408;-59
2022/11/15 01:36:11;;;;;;;25.75;17.15;;;7.90;99.90;;;;;;5088840;28;20082;-59
2022/11/15 01:38:37;;;;;;;26.98;19.05;;;7.80;99.90;;;;;;5109811;28;20456;-59
2022/11/15 01:41:03;;;;;;;26.33;19.13;;;7.80;99.90;;;;;;5095507;28;20126;-59
2022/11/15 01:43:32;;;;;;;26.05;19.70;;;7.80;99.90;;;;;;5113594;28;20039;-59
2022/11/15 01:46:09;;;;;;;24.15;19.13;;;7.80;99.90;;;;;;5113307;28;20053;-59
2022/11/15 01:48:35;;;;;;;28.13;20.42;;;7.80;99.90;;;;;;5113619;28;20040;-58
2022/11/15 01:51:04;;;;;;;31.25;21.70;;;7.70;99.90;;;;;;5095029;28;20355;-59
2022/11/15 01:53:32;;;;;;;32.03;21.15;;;7.70;99.90;;;;;;5095600;28;20380;-59
2022/11/15 01:56:00;;;;;;;29.92;20.33;;;7.70;99.90;;;;;;5113629;28;20043;-59
2022/11/15 01:58:25;;;;;;;28.80;21.38;;;7.70;99.90;;;;;;5113277;28;20040;-59
2022/11/15 02:00:52;;;;;;;28.55;19.98;;;7.70;99.90;;;;;;5113617;28;20040;-59
2022/11/15 02:03:18;;;;;;;26.92;19.88;;;7.80;99.90;;;;;;5081440;28;20127;-59
2022/11/15 02:05:44;;;;;;;27.75;19.60;;;7.70;99.90;;;;;;5090891;28;20566;-59
2022/11/15 02:08:19;;;;;;;27.95;20.33;;;7.70;99.90;;;;;;5091831;28;20126;-59
2022/11/15 02:10:46;;;;;;;27.27;19.70;;;7.70;99.90;;;;;;5092815;28;20076;-59
2022/11/15 02:13:17;;;;;;;31.38;19.83;;;7.70;99.90;;;;;;5092746;28;20068;-59
2022/11/15 02:16:19;;;;;;;31.90;20.25;;;7.70;99.90;;;;;;5093141;28;20391;-59
2022/11/15 02:18:56;;;;;;;28.52;19.50;;;7.70;99.90;;;;;;5092853;28;20115;-59
2022/11/15 02:21:40;;;;;;;26.73;20.33;;;7.70;99.90;;;;;;5092719;28;20044;-58
2022/11/15 02:24:25;;;;;;;25.17;18.33;;;7.70;99.90;;;;;;5093124;28;20044;-59
2022/11/15 02:27:16;;;;;;;26.67;18.95;;;7.70;99.90;;;;;;5092760;28;20031;-58
2022/11/15 02:30:00;;;;;;;22.95;17.48;;;7.70;99.90;;;;;;5092575;28;20048;-59
2022/11/15 02:32:44;;;;;;;27.95;17.58;;;7.60;99.90;;;;;;5091155;28;20043;-59
2022/11/15 02:35:24;;;;;;;26.48;18.92;;;7.60;99.90;;;;;;5090943;28;20040;-59
2022/11/15 02:37:57;;;;;;;26.67;17.88;;;7.70;99.90;;;;;;5091334;28;20036;-59
2022/11/15 02:40:28;;;;;;;26.67;17.25;;;7.60;99.90;;;;;;5092871;28;20036;-59
2022/11/15 02:45:51;;;;;;;25.85;18.30;;;7.70;99.90;;;;;;5092527;28;20047;-59
2022/11/15 02:48:18;;;;;;;28.80;18.20;;;7.70;99.90;;;;;;5092751;28;20065;-59
2022/11/15 02:50:45;;;;;;;30.67;19.73;;;7.70;99.90;;;;;;5092219;28;20086;-59
2022/11/15 02:53:10;;;;;;;29.67;19.75;;;7.60;99.90;;;;;;5092084;28;20375;-59
2022/11/15 02:55:46;;;;;;;33.70;21.08;;;7.70;99.90;;;;;;5092062;28;20050;-59
2022/11/15 02:58:39;;;;;;;30.77;20.02;;;7.70;99.90;;;;;;5092280;28;20114;-59
2022/11/15 03:01:36;;;;;;;34.95;20.27;;;7.60;99.90;;;;;;5092323;28;20478;-59
2022/11/15 03:04:41;;;;;;;30.35;19.98;;;7.70;99.90;;;;;;4988161;28;20054;-59
2022/11/15 03:07:29;;;;;;;36.25;20.50;;;7.70;99.90;;;;;;4986927;28;20042;-59
2022/11/15 03:10:02;;;;;;;31.95;20.83;;;7.70;99.90;;;;;;4990612;28;20057;-59
2022/11/15 03:12:36;;;;;;;32.90;20.88;;;7.70;99.90;;;;;;4990807;28;20540;-59
2022/11/15 03:15:09;;;;;;;33.92;21.05;;;7.70;99.90;;;;;;4990692;28;20612;-59
2022/11/15 03:18:11;;;;;;;33.63;20.60;;;7.70;99.90;;;;;;4990535;28;20077;-59
2022/11/15 03:20:37;;;;;;;37.75;21.50;;;7.70;99.90;;;;;;4974085;28;20046;-59
2022/11/15 03:23:09;;;;;;;34.42;21.35;;;7.70;99.90;;;;;;4990378;28;20038;-59
2022/11/15 03:25:40;;;;;;;33.67;20.35;;;7.70;99.90;;;;;;4990506;28;20045;-59
2022/11/15 03:28:09;;;;;;;33.10;20.90;;;7.70;99.90;;;;;;4990268;28;20050;-60
2022/11/15 03:30:38;;;;;;;33.42;20.67;;;7.70;99.90;;;;;;4990753;28;20046;-59
2022/11/15 03:33:05;;;;;;;37.38;21.65;;;7.70;99.90;;;;;;4986891;28;20556;-59
2022/11/15 03:35:37;;;;;;;39.25;21.38;;;7.70;99.90;;;;;;4984037;28;20056;-59
2022/11/15 03:38:21;;;;;;;35.63;20.77;;;7.70;99.90;;;;;;4987902;28;20050;-59
2022/11/15 03:40:56;;;;;;;35.88;20.55;;;7.70;99.90;;;;;;5020798;28;20044;-59
2022/11/15 03:43:36;;;;;;;36.03;21.20;;;7.70;99.90;;;;;;5093381;28;20093;-59
2022/11/15 03:46:12;;;;;;;34.33;21.10;;;7.80;99.90;;;;;;5095801;28;20032;-59
2022/11/15 03:48:45;;;;;;;37.92;21.27;;;7.80;99.90;;;;;;5095706;28;20089;-59
2022/11/15 03:51:11;;;;;;;37.95;21.75;;;7.70;99.90;;;;;;5095610;28;20047;-59
2022/11/15 03:53:36;;;;;;;36.33;21.92;;;7.80;99.90;;;;;;5095754;28;20032;-59
2022/11/15 03:56:02;;;;;;;35.22;19.45;;;7.80;99.90;;;;;;5095479;28;20038;-59
2022/11/15 03:58:28;;;;;;;36.63;21.92;;;7.80;99.90;;;;;;5095434;28;20047;-59
2022/11/15 04:00:53;;;;;;;37.63;20.73;;;7.80;99.90;;;;;;5095504;28;20039;-60
2022/11/15 04:03:19;;;;;;;36.95;21.50;;;7.90;99.90;;;;;;5094688;28;20035;-60
2022/11/15 04:05:45;;;;;;;34.60;20.05;;;7.90;99.90;;;;;;5093316;28;20039;-59
2022/11/15 04:08:10;;;;;;;42.08;23.23;;;7.90;99.90;;;;;;5091716;28;20032;-59
2022/11/15 04:10:36;;;;;;;38.45;22.35;;;7.90;99.90;;;;;;5095287;28;20486;-59
2022/11/15 04:13:02;;;;;;;39.80;21.33;;;7.90;99.90;;;;;;5094936;28;20044;-59
2022/11/15 04:15:29;;;;;;;37.55;21.80;;;8.00;99.90;;;;;;5095308;28;20032;-59
2022/11/15 04:17:56;;;;;;;38.58;21.80;;;8.00;99.90;;;;;;5095139;28;20039;-59
2022/11/15 04:26:12;;;;;;;41.78;21.70;;;8.00;99.90;;;;;;5095103;28;20384;-59
2022/11/15 04:29:33;;;;;;;43.45;21.90;;;8.10;99.90;;;;;;5095176;28;20119;-59
2022/11/15 04:31:24;;;;;;;38.13;21.73;;;8.20;99.90;;;;;;5094870;28;20102;-59
2022/11/15 04:33:49;;;;;;;37.42;22.05;;;8.10;99.90;;;;;;5093347;28;20028;-60
2022/11/15 04:38:59;;;;;;;42.03;21.95;;;8.00;99.90;;;;;;5092295;28;20036;-59
2022/11/15 04:41:25;;;;;;;41.47;22.80;;;8.10;99.90;;;;;;5096391;28;20039;-59
2022/11/15 04:43:50;;;;;;;42.45;23.38;;;8.10;99.90;;;;;;5076711;28;20036;-60
2022/11/15 04:46:16;;;;;;;44.10;23.65;;;8.20;99.90;;;;;;5094509;28;20059;-59
2022/11/15 04:48:42;;;;;;;42.42;22.30;;;8.20;99.90;;;;;;5094748;28;20101;-59
2022/11/15 04:51:08;;;;;;;47.92;23.35;;;8.20;99.90;;;;;;5094761;28;20047;-60
2022/11/15 04:53:33;;;;;;;47.08;23.27;;;8.20;99.90;;;;;;5094328;28;20404;-59
2022/11/15 04:55:59;;;;;;;51.03;24.20;;;8.20;99.90;;;;;;5094131;28;20055;-59
2022/11/15 04:58:25;;;;;;;51.78;23.90;;;8.20;99.90;;;;;;5094505;28;20119;-60
2022/11/15 05:00:50;;;;;;;53.15;24.33;;;8.20;99.90;;;;;;5094444;28;20045;-60
2022/11/15 05:06:00;;;;;;;49.22;24.90;;;8.20;99.90;;;;;;5099085;28;20040;-60
2022/11/15 05:08:26;;;;;;;58.10;25.75;;;8.20;99.90;;;;;;5075110;28;20090;-59
2022/11/15 05:10:51;;;;;;;57.63;25.90;;;8.30;99.90;;;;;;5094278;28;20429;-59
2022/11/15 05:13:17;;;;;;;50.70;25.88;;;8.40;99.90;;;;;;5094283;28;20118;-59
2022/11/15 05:15:43;;;;;;;58.88;27.15;;;8.30;99.90;;;;;;5094317;28;20032;-59
2022/11/15 05:18:09;;;;;;;57.80;28.52;;;8.40;99.90;;;;;;5094343;28;20413;-59
2022/11/15 05:20:34;;;;;;;58.15;27.05;;;8.30;99.90;;;;;;5094184;28;20036;-60
2022/11/15 05:23:00;;;;;;;56.63;26.50;;;8.30;99.90;;;;;;5094171;28;20398;-59
2022/11/15 05:25:26;;;;;;;57.42;27.65;;;8.40;99.90;;;;;;5094202;28;20032;-59
2022/11/15 05:27:52;;;;;;;58.55;28.33;;;8.30;99.90;;;;;;5093831;28;20569;-60
2022/11/15 05:30:18;;;;;;;57.10;28.27;;;8.50;99.90;;;;;;5094322;28;20119;-60
2022/11/15 05:32:44;;;;;;;57.25;28.25;;;8.40;99.90;;;;;;5093565;28;20046;-59
2022/11/15 05:35:15;;;;;;;65.20;28.83;;;8.40;99.90;;;;;;5093700;28;20098;-59
2022/11/15 05:37:41;;;;;;;75.65;31.75;;;8.50;99.90;;;;;;5093781;28;20044;-60
2022/11/15 05:40:07;;;;;;;78.90;31.60;;;8.60;99.90;;;;;;5093621;28;20083;-60
2022/11/15 05:42:33;;;;;;;78.00;31.83;;;8.40;99.90;;;;;;5093534;28;20525;-59
2022/11/15 05:44:59;;;;;;;80.60;32.80;;;8.60;99.90;;;;;;5093773;28;20036;-60
2022/11/15 05:47:29;;;;;;;87.65;32.17;;;8.50;99.90;;;;;;5093645;28;20045;-59
2022/11/15 05:49:55;;;;;;;83.13;33.50;;;8.60;99.90;;;;;;5093338;28;20044;-60
2022/11/15 06:04:38;;;;;;;83.18;38.10;;;8.70;99.90;;;;;;5108784;27;1242134;-60
2022/11/15 06:07:04;;;;;;;98.28;39.08;;;8.90;99.90;;;;;;5125272;28;20032;-61
2022/11/15 06:09:30;;;;;;;96.70;38.05;;;8.80;99.90;;;;;;5129985;28;20040;-60
2022/11/15 06:11:55;;;;;;;86.40;37.80;;;8.90;99.90;;;;;;5130333;28;20469;-60
2022/11/15 06:14:21;;;;;;;95.22;38.22;;;8.90;99.90;;;;;;5130131;28;20040;-61
2022/11/15 06:16:46;;;;;;;91.20;37.95;;;8.90;99.90;;;;;;5130194;28;20385;-60
2022/11/15 06:19:12;;;;;;;93.40;37.55;;;8.90;99.90;;;;;;5130132;28;20039;-61
2022/11/15 06:21:37;;;;;;;95.57;39.55;;;8.80;99.90;;;;;;5130124;28;20039;-61
2022/11/15 06:24:04;;;;;;;97.75;39.65;;;9.10;99.90;;;;;;5130675;28;20066;-60
2022/11/15 06:26:30;;;;;;;93.78;38.10;;;9.00;99.90;;;;;;5130096;28;20405;-60
2022/11/15 06:28:55;;;;;;;96.18;38.13;;;9.10;99.90;;;;;;5130097;28;20035;-61
2022/11/15 06:31:21;;;;;;;86.72;39.38;;;9.10;99.90;;;;;;5129972;28;20054;-61
2022/11/15 06:33:49;;;;;;;99.82;37.72;;;9.00;99.90;;;;;;5122866;27;20035;-61
2022/11/15 06:36:16;;;;;;;89.90;36.15;;;9.20;99.90;;;;;;5104589;28;20168;-61
2022/11/15 06:38:42;;;;;;;85.03;36.63;;;9.10;99.90;;;;;;5123155;28;20123;-60
2022/11/15 06:41:10;;;;;;;85.25;37.78;;;9.10;99.90;;;;;;5126347;28;20124;-61
2022/11/15 06:43:37;;;;;;;93.65;38.50;;;9.30;99.90;;;;;;5128824;28;20028;-61
2022/11/15 06:46:04;;;;;;;84.90;37.00;;;9.20;99.90;;;;;;5126811;28;20106;-60
2022/11/15 06:48:31;;;;;;;86.78;38.97;;;9.20;99.90;;;;;;5126209;28;20073;-61
2022/11/15 06:50:59;;;;;;;95.55;40.45;;;9.30;99.90;;;;;;5127643;28;20492;-61
2022/11/15 06:53:26;;;;;;;89.00;36.90;;;9.30;99.90;;;;;;5128865;28;20043;-61
2022/11/15 06:55:51;;;;;;;87.13;38.65;;;9.50;99.90;;;;;;5129524;28;20445;-61
2022/11/15 06:58:17;;;;;;;83.15;36.80;;;9.40;99.90;;;;;;5129603;28;20110;-60
2022/11/15 07:00:43;;;;;;;100.57;39.10;;;9.60;99.90;;;;;;5129442;28;20431;-60
2022/11/15 07:03:09;;;;;;;81.07;38.08;;;9.50;99.90;;;;;;5129031;28;20146;-60
2022/11/15 07:05:35;;;;;;;88.30;40.13;;;9.40;99.90;;;;;;5113884;28;20046;-60
2022/11/15 07:08:01;;;;;;;95.15;40.03;;;9.60;99.90;;;;;;5113515;28;20388;-60
2022/11/15 07:10:27;;;;;;;95.43;37.97;;;9.70;99.90;;;;;;5114936;28;20473;-60
2022/11/15 07:12:54;;;;;;;82.75;37.30;;;9.70;99.90;;;;;;5115270;28;20097;-60
2022/11/15 07:15:23;;;;;;;81.88;37.65;;;9.70;99.90;;;;;;5115506;28;20122;-61
2022/11/15 07:17:49;;;;;;;83.97;37.40;;;9.70;99.90;;;;;;5079979;28;20044;-61
2022/11/15 07:20:15;;;;;;;85.13;38.67;;;9.80;99.90;;;;;;5114930;28;20469;-61
2022/11/15 07:22:41;;;;;;;88.85;37.65;;;9.70;99.90;;;;;;5115246;28;20039;-60
2022/11/15 07:25:07;;;;;;;90.15;38.58;;;9.70;99.90;;;;;;5115168;28;20554;-60
2022/11/15 07:27:33;;;;;;;83.93;38.08;;;9.70;99.90;;;;;;5115036;28;20040;-60
2022/11/15 07:29:59;;;;;;;74.10;36.00;;;9.90;99.90;;;;;;5115197;28;20438;-60
2022/11/15 07:32:25;;;;;;;74.75;36.45;;;9.80;99.90;;;;;;5115078;28;20043;-60
2022/11/15 07:34:50;;;;;;;84.13;36.70;;;9.80;99.90;;;;;;5115106;28;20047;-60
2022/11/15 07:37:16;;;;;;;75.47;35.13;;;9.70;99.90;;;;;;5112380;28;20096;-61
2022/11/15 07:39:43;;;;;;;79.03;35.95;;;9.80;99.90;;;;;;5114568;28;20503;-61
2022/11/15 07:44:53;;;;;;;77.07;35.47;;;9.90;99.90;;;;;;5093761;28;20044;-62
2022/11/15 07:47:20;;;;;;;77.70;37.67;;;10.00;99.90;;;;;;5094531;28;20170;-62
2022/11/15 07:49:46;;;;;;;74.05;35.42;;;10.00;99.90;;;;;;5094127;28;20051;-61
2022/11/15 07:52:12;;;;;;;68.65;34.70;;;10.10;99.90;;;;;;5093391;28;20185;-62
2022/11/15 07:54:38;;;;;;;72.90;33.58;;;10.10;99.90;;;;;;5093999;28;20036;-61
2022/11/15 07:57:04;;;;;;;67.53;33.17;;;10.10;99.90;;;;;;5094042;28;20492;-61
2022/11/15 07:59:30;;;;;;;77.47;34.28;;;10.00;99.90;;;;;;5098523;28;20043;-62
2022/11/15 08:01:56;;;;;;;71.50;34.17;;;10.00;99.90;;;;;;5113505;28;20031;-61
2022/11/15 08:04:21;;;;;;;70.50;33.08;;;10.20;99.90;;;;;;5093543;28;20129;-61
2022/11/15 08:06:47;;;;;;;67.35;33.47;;;10.20;99.90;;;;;;5093634;28;20028;-61
2022/11/15 08:09:13;;;;;;;58.50;31.92;;;10.20;99.90;;;;;;5112362;28;20430;-62
2022/11/15 08:11:38;;;;;;;61.10;32.03;;;10.30;99.90;;;;;;5113885;28;20032;-62
2022/11/15 08:14:04;;;;;;;61.17;30.83;;;10.20;99.90;;;;;;5114113;28;20075;-62
2022/11/15 08:16:30;;;;;;;65.45;32.05;;;10.20;99.90;;;;;;5113406;28;20111;-62
2022/11/15 08:18:55;;;;;;;62.08;30.98;;;10.30;99.90;;;;;;5095765;28;20040;-62
2022/11/15 08:21:22;;;;;;;60.75;31.63;;;10.40;99.90;;;;;;5113975;28;20042;-62
2022/11/15 08:23:47;;;;;;;57.33;32.05;;;10.40;99.90;;;;;;5114157;28;20086;-62
2022/11/15 08:26:14;;;;;;;54.55;30.52;;;10.40;99.90;;;;;;5114032;28;20546;-61
2022/11/15 08:28:40;;;;;;;51.25;29.67;;;10.50;99.90;;;;;;5114328;28;20043;-63
2022/11/15 08:31:05;;;;;;;58.65;29.85;;;10.60;99.90;;;;;;5114140;28;20370;-62
2022/11/15 08:33:32;;;;;;;50.90;30.25;;;10.50;99.90;;;;;;5113996;28;20370;-62
2022/11/15 08:36:00;;;;;;;52.80;30.17;;;10.50;99.90;;;;;;5114075;28;20495;-62
2022/11/15 08:38:25;;;;;;;45.72;28.08;;;10.50;99.90;;;;;;5094327;28;20389;-62
2022/11/15 08:40:53;;;;;;;46.70;28.58;;;10.60;99.90;;;;;;5111579;28;20043;-62
2022/11/15 08:43:18;;;;;;;53.25;29.33;;;10.60;99.90;;;;;;5094098;28;20496;-62
2022/11/15 08:45:44;;;;;;;49.22;29.35;;;10.70;99.90;;;;;;5113540;28;20042;-62
2022/11/15 08:48:10;;;;;;;47.58;27.50;;;10.60;99.90;;;;;;5095191;28;20043;-62
2022/11/15 08:50:36;;;;;;;41.95;27.17;;;10.70;99.90;;;;;;5113358;28;20062;-62
2022/11/15 08:53:09;;;;;;;42.72;27.10;;;10.70;99.90;;;;;;5113320;28;20044;-62
2022/11/15 08:55:38;;;;;;;38.60;26.83;;;10.70;99.90;;;;;;5113110;28;20444;-63
2022/11/15 08:58:04;;;;;;;47.13;27.52;;;10.80;99.90;;;;;;5113160;28;20043;-62
2022/11/15 09:00:30;;;;;;;40.50;25.65;;;10.90;99.90;;;;;;5113164;28;20046;-62
2022/11/15 09:02:55;;;;;;;37.30;24.85;;;11.00;99.90;;;;;;5113012;28;20035;-62
2022/11/15 09:05:21;;;;;;;39.10;25.15;;;11.00;99.90;;;;;;5110857;28;20052;-62
2022/11/15 09:07:47;;;;;;;39.40;24.63;;;11.00;99.90;;;;;;5110685;28;20044;-63
2022/11/15 09:10:12;;;;;;;38.42;23.95;;;11.20;99.90;;;;;;5111399;28;20035;-62
2022/11/15 09:12:38;;;;;;;40.63;23.67;;;11.10;99.90;;;;;;5112881;28;20393;-63
2022/11/15 09:15:05;;;;;;;38.17;23.48;;;11.20;99.90;;;;;;5094415;28;20073;-63
2022/11/15 09:17:31;;;;;;;31.42;22.73;;;11.10;99.90;;;;;;5112860;28;20038;-63
2022/11/15 09:19:57;;;;;;;34.17;22.58;;;11.30;99.90;;;;;;5112679;28;20032;-63
2022/11/15 09:22:22;;;;;;;34.85;21.48;;;11.30;99.90;;;;;;5112715;28;20035;-63
2022/11/15 09:24:48;;;;;;;33.15;21.90;;;11.30;99.90;;;;;;5112834;28;20040;-63
2022/11/15 09:27:13;;;;;;;31.70;20.75;;;11.40;99.90;;;;;;5112235;28;20091;-63
2022/11/15 09:29:39;;;;;;;32.03;21.33;;;11.30;99.90;;;;;;5112820;28;20046;-63
2022/11/15 09:32:05;;;;;;;25.98;20.95;;;11.40;99.90;;;;;;5112663;28;20048;-62
2022/11/15 09:34:31;;;;;;;30.25;20.20;;;11.40;99.90;;;;;;5112425;28;20370;-63
2022/11/15 09:36:56;;;;;;;28.42;20.08;;;11.50;99.90;;;;;;5111258;28;20036;-63
2022/11/15 09:39:22;;;;;;;30.63;19.48;;;11.50;99.90;;;;;;5110659;28;20032;-64
2022/11/15 09:41:51;;;;;;;27.92;20.95;;;11.40;99.90;;;;;;5112575;28;20471;-63
2022/11/15 09:44:40;;;;;;;26.10;18.98;;;11.60;99.90;;;;;;5112865;28;20054;-63
2022/11/15 09:47:26;;;;;;;28.35;18.45;;;11.60;99.90;;;;;;5009893;28;20056;-63
2022/11/15 09:49:57;;;;;;;29.90;18.98;;;11.50;99.90;;;;;;5010140;28;20062;-62
2022/11/15 09:52:23;;;;;;;24.45;17.80;;;11.60;99.90;;;;;;5009714;28;20105;-63
2022/11/15 09:54:51;;;;;;;30.27;17.73;;;11.60;99.90;;;;;;5009994;28;20073;-63
2022/11/15 09:57:39;;;;;;;26.38;18.77;;;11.70;99.90;;;;;;4993667;28;20049;-63
2022/11/15 10:00:20;;;;;;;23.98;17.98;;;11.70;99.90;;;;;;4999612;28;20062;-63
2022/11/15 10:02:57;;;;;;;26.38;17.98;;;11.70;99.90;;;;;;5009752;28;20073;-62
2022/11/15 10:05:25;;;;;;;23.77;18.00;;;11.60;99.90;;;;;;5008731;28;20058;-62
2022/11/15 10:08:28;;;;;;;28.50;16.85;;;11.80;99.90;;;;;;5007761;28;20077;-63
2022/11/15 10:11:17;;;;;;;25.73;17.05;;;11.60;99.90;;;;;;4953066;28;20487;-62
2022/11/15 10:13:47;;;;;;;22.27;17.00;;;11.70;99.90;;;;;;4970635;28;20118;-63
2022/11/15 10:16:34;;;;;;;27.63;17.73;;;11.70;99.90;;;;;;4970645;28;20105;-63
2022/11/15 10:19:09;;;;;;;23.30;16.02;;;11.70;99.90;;;;;;4970698;28;20043;-64
2022/11/15 10:22:08;;;;;;;28.10;16.95;;;11.70;99.90;;;;;;4970668;28;20050;-62
2022/11/15 10:24:42;;;;;;;24.55;16.10;;;11.70;99.90;;;;;;5035321;28;20487;-63
2022/11/15 10:27:16;;;;;;;23.17;17.02;;;11.80;99.90;;;;;;5069140;28;20036;-63
2022/11/15 10:29:49;;;;;;;21.27;15.38;;;11.80;99.90;;;;;;5069143;28;20048;-63
2022/11/15 10:32:18;;;;;;;21.98;15.50;;;11.90;99.90;;;;;;5069161;28;20482;-62
2022/11/15 10:34:44;;;;;;;21.75;16.10;;;11.80;99.90;;;;;;5068470;28;20583;-62
2022/11/15 10:37:10;;;;;;;25.48;16.58;;;11.80;99.90;;;;;;5067108;28;20040;-63
2022/11/15 10:39:35;;;;;;;23.38;16.85;;;11.80;99.90;;;;;;5068747;28;20537;-63
2022/11/15 10:42:27;;;;;;;20.60;16.10;;;11.80;99.90;;;;;;5073041;28;20052;-63
2022/11/15 10:44:53;;;;;;;20.10;15.50;;;11.90;99.90;;;;;;5072841;28;20048;-63
2022/11/15 10:47:30;;;;;;;30.08;17.60;;;12.00;99.90;;;;;;5088061;28;20047;-63
2022/11/15 10:50:07;;;;;;;24.88;16.42;;;12.00;99.90;;;;;;5115133;28;20040;-63
2022/11/15 10:52:35;;;;;;;30.60;17.15;;;11.80;99.90;;;;;;5115540;28;20047;-63
2022/11/15 10:55:12;;;;;;;27.90;16.95;;;11.90;99.90;;;;;;5114672;28;20470;-63
2022/11/15 10:57:39;;;;;;;22.00;15.27;;;12.00;99.90;;;;;;5115548;28;20074;-63
2022/11/15 11:00:28;;;;;;;20.30;15.70;;;12.00;99.90;;;;;;5115479;28;20086;-63
2022/11/15 11:02:59;;;;;;;28.05;16.55;;;12.10;99.90;;;;;;5115423;28;20040;-63
2022/11/15 11:05:36;;;;;;;24.67;15.48;;;11.90;99.90;;;;;;5114088;28;20043;-63
2022/11/15 11:08:04;;;;;;;20.30;14.98;;;12.00;99.90;;;;;;5113707;28;20039;-63
2022/11/15 11:10:30;;;;;;;23.42;15.75;;;12.10;99.90;;;;;;5114138;28;20078;-62
2022/11/15 11:12:55;;;;;;;21.25;14.95;;;12.00;99.90;;;;;;5115054;28;20489;-63
2022/11/15 11:15:27;;;;;;;24.30;15.52;;;12.00;99.90;;;;;;5115060;28;20039;-63
2022/11/15 11:18:15;;;;;;;20.35;15.43;;;12.10;99.90;;;;;;5115186;28;20497;-62
2022/11/15 11:20:48;;;;;;;21.85;14.85;;;12.10;99.90;;;;;;5115393;28;20064;-63
2022/11/15 11:23:46;;;;;;;23.50;15.30;;;12.30;99.90;;;;;;5115474;28;20043;-64
2022/11/15 11:26:23;;;;;;;25.52;15.45;;;12.40;99.90;;;;;;5115179;28;20054;-63
2022/11/15 11:29:16;;;;;;;19.15;14.07;;;12.40;99.90;;;;;;5114868;28;20074;-62
2022/11/15 11:32:00;;;;;;;21.40;14.32;;;12.50;99.90;;;;;;5114942;28;20047;-64
2022/11/15 11:34:35;;;;;;;16.58;13.57;;;12.40;99.90;;;;;;5114687;28;20054;-63
2022/11/15 11:37:23;;;;;;;19.85;13.60;;;12.60;99.90;;;;;;5112832;28;20131;-64
2022/11/15 11:39:54;;;;;;;19.52;13.32;;;12.50;99.90;;;;;;5112364;28;20035;-63
2022/11/15 11:42:40;;;;;;;16.65;12.75;;;12.60;99.90;;;;;;5113378;28;20504;-63
2022/11/15 11:45:33;;;;;;;17.58;12.38;;;12.60;99.90;;;;;;5114811;28;20043;-63
2022/11/15 11:48:37;;;;;;;19.48;13.05;;;12.80;99.90;;;;;;5114721;28;20043;-64
2022/11/15 11:51:18;;;;;;;17.60;12.85;;;12.90;99.90;;;;;;5011431;28;20049;-63
2022/11/15 11:53:52;;;;;;;14.38;11.32;;;12.90;99.90;;;;;;5011641;28;20053;-63
2022/11/15 11:56:29;;;;;;;14.55;11.23;;;12.90;99.90;;;;;;5011648;28;20145;-63
2022/11/15 11:59:03;;;;;;;12.88;10.80;;;13.10;99.90;;;;;;5011780;28;20084;-63
2022/11/15 12:01:35;;;;;;;14.93;10.02;;;13.00;99.90;;;;;;5011955;28;20064;-63
2022/11/15 12:04:05;;;;;;;15.98;10.55;;;13.00;99.90;;;;;;4995625;28;20046;-63
2022/11/15 12:06:42;;;;;;;9.82;8.02;;;13.00;99.90;;;;;;5009751;28;20056;-64
2022/11/15 12:09:35;;;;;;;12.98;7.80;;;13.00;99.90;;;;;;5009456;28;20107;-64
2022/11/15 12:12:09;;;;;;;9.70;7.25;;;13.00;99.90;;;;;;5010376;28;20478;-64
2022/11/15 12:14:44;;;;;;;7.25;5.85;;;13.00;99.90;;;;;;5011497;28;20061;-63
2022/11/15 12:17:13;;;;;;;8.65;5.60;;;13.10;99.90;;;;;;5011428;28;20487;-63
2022/11/15 12:19:42;;;;;;;14.57;4.53;;;13.10;99.90;;;;;;5011540;28;20046;-63
2022/11/15 12:22:42;;;;;;;8.65;4.45;;;13.00;99.90;;;;;;5011222;28;20056;-63
2022/11/15 12:25:33;;;;;;;7.57;3.70;;;13.00;99.90;;;;;;5011391;28;20092;-63
2022/11/15 12:28:12;;;;;;;10.30;4.50;;;13.00;99.90;;;;;;5084530;28;20051;-63
2022/11/15 12:30:54;;;;;;;6.45;3.28;;;13.00;99.90;;;;;;5113597;28;20093;-63
2022/11/15 12:33:43;;;;;;;9.30;3.55;;;13.00;99.90;;;;;;5113762;28;20047;-63
2022/11/15 12:36:30;;;;;;;5.22;2.88;;;12.90;99.90;;;;;;5112558;28;20997;-63
2022/11/15 12:38:55;;;;;;;6.82;2.80;;;13.00;99.90;;;;;;5111825;28;20036;-63
2022/11/15 12:41:33;;;;;;;4.88;2.67;;;12.90;99.90;;;;;;5112037;28;20082;-63
2022/11/15 12:44:03;;;;;;;4.28;2.75;;;12.90;99.90;;;;;;5113375;28;20039;-63
2022/11/15 12:46:29;;;;;;;4.97;2.40;;;12.80;99.90;;;;;;5113256;28;20061;-63
2022/11/15 12:49:07;;;;;;;4.82;2.20;;;12.90;99.90;;;;;;5113227;28;20122;-63
2022/11/15 12:51:48;;;;;;;6.50;2.45;;;12.80;99.90;;;;;;5113140;28;20085;-63
2022/11/15 12:54:22;;;;;;;5.43;2.28;;;12.90;99.90;;;;;;5113154;28;20047;-63
2022/11/15 12:57:03;;;;;;;8.02;2.42;;;12.90;99.90;;;;;;5113009;28;20035;-64
2022/11/15 12:59:51;;;;;;;4.00;2.75;;;12.90;99.90;;;;;;5112925;28;20040;-63
2022/11/15 13:02:35;;;;;;;4.90;2.00;;;13.00;99.90;;;;;;5094241;28;20047;-63
2022/11/15 13:05:17;;;;;;;4.82;2.53;;;13.00;99.90;;;;;;5112703;28;20051;-63
2022/11/15 13:07:44;;;;;;;6.07;2.50;;;13.10;99.90;;;;;;5111144;28;20044;-63
2022/11/15 13:10:09;;;;;;;6.53;2.30;;;13.30;99.90;;;;;;5111695;28;20040;-63
2022/11/15 13:12:38;;;;;;;3.90;2.33;;;13.40;99.90;;;;;;5112582;28;20393;-64
2022/11/15 13:15:13;;;;;;;11.25;3.55;;;13.40;99.90;;;;;;5112757;28;20039;-63
2022/11/15 13:17:48;;;;;;;4.88;2.78;;;13.50;99.90;;;;;;5112631;28;20044;-63
2022/11/15 13:20:16;;;;;;;6.22;4.05;;;13.40;99.90;;;;;;5112734;28;20555;-64